sensor_id;sensor_type;location;lat;lon;timestamp;pressure;altitude;pressure_sealevel;temperature;humidity
59375;BME280;45172;55.006;73.460;2023-06-22T00:00:51;98932.84;;;8.74;nan
59375;BME280;45172;55.006;73.460;2023-06-22T00:03:19;98931.06;;;8.70;nan
59375;BME280;45172;55.006;73.460;2023-06-22T00:05:47;98924.91;;;8.88;nan
59375;BME280;45172;55.006;73.460;2023-06-22T00:08:14;98937.22;;;8.97;nan
59375;BME280;45172;55.006;73.460;2023-06-22T00:10:40;98911.69;;;8.65;nan
59375;BME280;45172;55.006;73.460;2023-06-22T00:13:07;98951.28;;;8.96;nan
59375;BME280;45172;55.006;73.460;2023-06-22T00:15:34;98970.69;;;8.87;nan
59375;BME280;45172;55.006;73.460;2023-06-22T00:18:01;98980.34;;;9.20;nan
59375;BME280;45172;55.006;73.460;2023-06-22T00:20:28;98966.28;;;9.02;nan
59375;BME280;45172;55.006;73.460;2023-06-22T00:22:57;98964.50;;;8.96;nan
59375;BME280;45172;55.006;73.460;2023-06-22T00:25:23;98970.66;;;9.25;nan
59375;BME280;45172;55.006;73.460;2023-06-22T00:27:50;98971.56;;;9.05;nan
59375;BME280;45172;55.006;73.460;2023-06-22T00:30:18;98952.19;;;9.03;nan
59375;BME280;45172;55.006;73.460;2023-06-22T00:32:45;98964.50;;;9.10;nan
59375;BME280;45172;55.006;73.460;2023-06-22T00:35:14;98967.13;;;9.26;nan
59375;BME280;45172;55.006;73.460;2023-06-22T00:37:40;98980.34;;;9.37;nan
59375;BME280;45172;55.006;73.460;2023-06-22T00:40:10;98986.50;;;9.40;nan
59375;BME280;45172;55.006;73.460;2023-06-22T00:42:38;98950.38;;;9.19;nan
59375;BME280;45172;55.006;73.460;2023-06-22T00:45:06;98982.97;;;9.16;nan
59375;BME280;45172;55.006;73.460;2023-06-22T00:47:36;98997.94;;;9.31;nan
59375;BME280;45172;55.006;73.460;2023-06-22T00:50:06;98971.53;;;9.22;nan
59375;BME280;45172;55.006;73.460;2023-06-22T00:52:35;98979.47;;;9.08;nan
59375;BME280;45172;55.006;73.460;2023-06-22T00:55:02;98992.66;;;9.14;nan
59375;BME280;45172;55.006;73.460;2023-06-22T00:57:29;98992.66;;;9.41;nan
59375;BME280;45172;55.006;73.460;2023-06-22T00:59:59;98935.44;;;8.96;nan
59375;BME280;45172;55.006;73.460;2023-06-22T01:02:25;98982.94;;;9.51;nan
59375;BME280;45172;55.006;73.460;2023-06-22T01:04:51;98995.25;;;9.55;nan
59375;BME280;45172;55.006;73.460;2023-06-22T01:07:35;98982.97;;;9.46;nan
59375;BME280;45172;55.006;73.460;2023-06-22T01:12:42;99011.16;;;9.36;nan
59375;BME280;45172;55.006;73.460;2023-06-22T01:15:23;98987.41;;;9.16;nan
59375;BME280;45172;55.006;73.460;2023-06-22T01:17:52;98974.19;;;9.03;nan
59375;BME280;45172;55.006;73.460;2023-06-22T01:20:20;98944.25;;;9.00;nan
59375;BME280;45172;55.006;73.460;2023-06-22T01:25:36;99041.09;;;9.51;nan
59375;BME280;45172;55.006;73.460;2023-06-22T01:28:36;99030.53;;;9.27;nan
59375;BME280;45172;55.006;73.460;2023-06-22T01:31:03;99036.69;;;9.26;nan
59375;BME280;45172;55.006;73.460;2023-06-22T01:33:35;99042.84;;;9.24;nan
59375;BME280;45172;55.006;73.460;2023-06-22T01:36:03;99025.25;;;9.35;nan
59375;BME280;45172;55.006;73.460;2023-06-22T01:38:32;99050.78;;;9.50;nan
59375;BME280;45172;55.006;73.460;2023-06-22T01:41:00;99047.25;;;9.31;nan
59375;BME280;45172;55.006;73.460;2023-06-22T01:43:27;99041.97;;;9.26;nan
59375;BME280;45172;55.006;73.460;2023-06-22T01:45:55;99050.78;;;9.50;nan
59375;BME280;45172;55.006;73.460;2023-06-22T01:48:22;99061.38;;;9.59;nan
59375;BME280;45172;55.006;73.460;2023-06-22T01:50:49;99056.97;;;9.63;nan
59375;BME280;45172;55.006;73.460;2023-06-22T01:53:15;99049.03;;;9.52;nan
59375;BME280;45172;55.006;73.460;2023-06-22T01:55:42;99040.19;;;9.50;nan
59375;BME280;45172;55.006;73.460;2023-06-22T01:58:08;99060.50;;;9.51;nan
59375;BME280;45172;55.006;73.460;2023-06-22T02:00:41;99049.94;;;9.51;nan
59375;BME280;45172;55.006;73.460;2023-06-22T02:03:13;99063.97;;;9.77;nan
59375;BME280;45172;55.006;73.460;2023-06-22T02:08:41;99071.88;;;9.89;nan
59375;BME280;45172;55.006;73.460;2023-06-22T02:11:13;99073.69;;;9.61;nan
59375;BME280;45172;55.006;73.460;2023-06-22T02:13:40;99086.00;;;9.77;nan
59375;BME280;45172;55.006;73.460;2023-06-22T02:16:17;99055.22;;;9.40;nan
59375;BME280;45172;55.006;73.460;2023-06-22T02:18:50;99086.94;;;9.50;nan
59375;BME280;45172;55.006;73.460;2023-06-22T02:21:19;99076.34;;;9.67;nan
59375;BME280;45172;55.006;73.460;2023-06-22T02:23:46;99080.75;;;9.41;nan
59375;BME280;45172;55.006;73.460;2023-06-22T02:26:13;99088.66;;;9.65;nan
59375;BME280;45172;55.006;73.460;2023-06-22T02:28:40;99050.78;;;9.19;nan
59375;BME280;45172;55.006;73.460;2023-06-22T02:31:06;99095.72;;;9.61;nan
59375;BME280;45172;55.006;73.460;2023-06-22T02:33:32;99099.25;;;9.38;nan
59375;BME280;45172;55.006;73.460;2023-06-22T02:38:23;99095.75;;;9.33;nan
59375;BME280;45172;55.006;73.460;2023-06-22T02:40:50;99101.00;;;9.45;nan
59375;BME280;45172;55.006;73.460;2023-06-22T02:43:16;99103.66;;;9.73;nan
59375;BME280;45172;55.006;73.460;2023-06-22T02:45:42;99110.69;;;9.82;nan
59375;BME280;45172;55.006;73.460;2023-06-22T02:48:10;99096.63;;;9.68;nan
59375;BME280;45172;55.006;73.460;2023-06-22T02:50:35;99079.88;;;9.58;nan
59375;BME280;45172;55.006;73.460;2023-06-22T02:53:04;99097.47;;;9.78;nan
59375;BME280;45172;55.006;73.460;2023-06-22T02:55:30;99061.34;;;9.66;nan
59375;BME280;45172;55.006;73.460;2023-06-22T02:57:57;99093.03;;;9.92;nan
59375;BME280;45172;55.006;73.460;2023-06-22T03:00:26;99080.69;;;9.96;nan
59375;BME280;45172;55.006;73.460;2023-06-22T03:02:56;99082.47;;;9.95;nan
59375;BME280;45172;55.006;73.460;2023-06-22T03:05:23;99082.44;;;9.98;nan
59375;BME280;45172;55.006;73.460;2023-06-22T03:07:49;99125.63;;;10.11;nan
59375;BME280;45172;55.006;73.460;2023-06-22T03:17:37;99112.31;;;10.39;nan
59375;BME280;45172;55.006;73.460;2023-06-22T03:20:05;99141.47;;;10.30;nan
59375;BME280;45172;55.006;73.460;2023-06-22T03:22:40;99137.03;;;10.43;nan
59375;BME280;45172;55.006;73.460;2023-06-22T03:25:07;99125.53;;;10.38;nan
59375;BME280;45172;55.006;73.460;2023-06-22T03:27:39;99126.44;;;10.35;nan
59375;BME280;45172;55.006;73.460;2023-06-22T03:30:07;99143.22;;;10.44;nan
59375;BME280;45172;55.006;73.460;2023-06-22T03:32:34;99128.25;;;10.21;nan
59375;BME280;45172;55.006;73.460;2023-06-22T03:35:00;99115.00;;;10.24;nan
59375;BME280;45172;55.006;73.460;2023-06-22T03:37:27;99137.91;;;10.40;nan
59375;BME280;45172;55.006;73.460;2023-06-22T03:39:54;99148.50;;;10.48;nan
59375;BME280;45172;55.006;73.460;2023-06-22T03:42:21;99082.41;;;10.16;nan
59375;BME280;45172;55.006;73.460;2023-06-22T03:44:47;99151.13;;;10.56;nan
59375;BME280;45172;55.006;73.460;2023-06-22T03:47:13;99151.16;;;10.45;nan
59375;BME280;45172;55.006;73.460;2023-06-22T03:49:40;99148.41;;;10.72;nan
59375;BME280;45172;55.006;73.460;2023-06-22T03:52:06;99146.63;;;10.77;nan
59375;BME280;45172;55.006;73.460;2023-06-22T03:54:32;99113.13;;;10.63;nan
59375;BME280;45172;55.006;73.460;2023-06-22T03:56:59;99149.19;;;10.92;nan
59375;BME280;45172;55.006;73.460;2023-06-22T03:59:25;99152.78;;;10.80;nan
59375;BME280;45172;55.006;73.460;2023-06-22T04:01:51;99140.47;;;10.67;nan
59375;BME280;45172;55.006;73.460;2023-06-22T04:06:45;99159.69;;;11.14;nan
59375;BME280;45172;55.006;73.460;2023-06-22T04:09:11;99159.66;;;11.17;nan
59375;BME280;45172;55.006;73.460;2023-06-22T04:14:03;99165.06;;;10.95;nan
59375;BME280;45172;55.006;73.460;2023-06-22T04:16:29;99143.88;;;10.99;nan
59375;BME280;45172;55.006;73.460;2023-06-22T04:18:55;99143.78;;;11.11;nan
59375;BME280;45172;55.006;73.460;2023-06-22T04:21:21;99182.50;;;11.42;nan
59375;BME280;45172;55.006;73.460;2023-06-22T04:23:47;99176.19;;;11.60;nan
59375;BME280;45172;55.006;73.460;2023-06-22T04:26:13;99178.84;;;11.57;nan
59375;BME280;45172;55.006;73.460;2023-06-22T04:28:40;99127.53;;;11.58;nan
59375;BME280;45172;55.006;73.460;2023-06-22T04:31:07;99171.56;;;11.81;nan
59375;BME280;45172;55.006;73.460;2023-06-22T04:33:34;99155.66;;;11.81;nan
59375;BME280;45172;55.006;73.460;2023-06-22T04:36:00;99164.50;;;11.79;nan
59375;BME280;45172;55.006;73.460;2023-06-22T04:38:27;99176.03;;;11.77;nan
59375;BME280;45172;55.006;73.460;2023-06-22T04:40:53;99173.66;;;11.38;nan
59375;BME280;45172;55.006;73.460;2023-06-22T04:43:19;99167.47;;;11.41;nan
59375;BME280;45172;55.006;73.460;2023-06-22T04:45:47;99178.91;;;11.46;nan
59375;BME280;45172;55.006;73.460;2023-06-22T04:48:18;99180.75;;;11.34;nan
59375;BME280;45172;55.006;73.460;2023-06-22T04:50:44;99171.88;;;11.40;nan
59375;BME280;45172;55.006;73.460;2023-06-22T04:53:10;99193.03;;;11.53;nan
59375;BME280;45172;55.006;73.460;2023-06-22T04:55:39;99198.44;;;11.35;nan
59375;BME280;45172;55.006;73.460;2023-06-22T04:58:09;99165.88;;;11.10;nan
59375;BME280;45172;55.006;73.460;2023-06-22T05:00:38;99214.38;;;11.31;nan
59375;BME280;45172;55.006;73.460;2023-06-22T05:03:04;99214.44;;;11.14;nan
59375;BME280;45172;55.006;73.460;2023-06-22T05:05:34;99222.34;;;11.24;nan
59375;BME280;45172;55.006;73.460;2023-06-22T05:08:00;99232.94;;;11.24;nan
59375;BME280;45172;55.006;73.460;2023-06-22T05:10:27;99231.19;;;11.20;nan
59375;BME280;45172;55.006;73.460;2023-06-22T05:12:55;99223.38;;;10.89;nan
59375;BME280;45172;55.006;73.460;2023-06-22T05:15:21;99225.06;;;11.07;nan
59375;BME280;45172;55.006;73.460;2023-06-22T05:17:52;99222.44;;;11.03;nan
59375;BME280;45172;55.006;73.460;2023-06-22T05:20:18;99191.59;;;10.91;nan
59375;BME280;45172;55.006;73.460;2023-06-22T05:22:44;99240.00;;;11.24;nan
59375;BME280;45172;55.006;73.460;2023-06-22T05:25:11;99221.53;;;11.08;nan
59375;BME280;45172;55.006;73.460;2023-06-22T05:27:37;99225.16;;;10.95;nan
59375;BME280;45172;55.006;73.460;2023-06-22T05:30:07;99240.06;;;11.18;nan
59375;BME280;45172;55.006;73.460;2023-06-22T05:32:33;99242.69;;;11.21;nan
59375;BME280;45172;55.006;73.460;2023-06-22T05:34:59;99230.38;;;11.07;nan
59375;BME280;45172;55.006;73.460;2023-06-22T05:37:29;99216.31;;;10.91;nan
59375;BME280;45172;55.006;73.460;2023-06-22T05:39:55;99229.53;;;11.02;nan
59375;BME280;45172;55.006;73.460;2023-06-22T05:42:23;99268.28;;;11.28;nan
59375;BME280;45172;55.006;73.460;2023-06-22T05:44:52;99215.41;;;10.99;nan
59375;BME280;45172;55.006;73.460;2023-06-22T05:47:19;99271.88;;;11.10;nan
59375;BME280;45172;55.006;73.460;2023-06-22T05:50:05;99262.16;;;11.17;nan
59375;BME280;45172;55.006;73.460;2023-06-22T05:52:34;99235.63;;;11.18;nan
59375;BME280;45172;55.006;73.460;2023-06-22T05:55:02;99270.75;;;11.61;nan
59375;BME280;45172;55.006;73.460;2023-06-22T05:57:28;99257.53;;;11.53;nan
59375;BME280;45172;55.006;73.460;2023-06-22T05:59:54;99256.66;;;11.57;nan
59375;BME280;45172;55.006;73.460;2023-06-22T06:02:20;99258.50;;;11.43;nan
59375;BME280;45172;55.006;73.460;2023-06-22T06:04:46;99273.59;;;11.23;nan
59375;BME280;45172;55.006;73.460;2023-06-22T06:07:12;99275.25;;;11.43;nan
59375;BME280;45172;55.006;73.460;2023-06-22T06:09:38;99274.47;;;11.27;nan
59375;BME280;45172;55.006;73.460;2023-06-22T06:12:05;99278.75;;;11.53;nan
59375;BME280;45172;55.006;73.460;2023-06-22T06:14:31;99279.59;;;11.64;nan
59375;BME280;45172;55.006;73.460;2023-06-22T06:16:57;99267.28;;;11.53;nan
59375;BME280;45172;55.006;73.460;2023-06-22T06:19:23;99254.06;;;11.45;nan
59375;BME280;45172;55.006;73.460;2023-06-22T06:21:49;99265.66;;;11.20;nan
59375;BME280;45172;55.006;73.460;2023-06-22T06:24:16;99262.03;;;11.42;nan
59375;BME280;45172;55.006;73.460;2023-06-22T06:26:42;99272.47;;;11.71;nan
59375;BME280;45172;55.006;73.460;2023-06-22T06:29:08;99244.97;;;11.82;nan
59375;BME280;45172;55.006;73.460;2023-06-22T06:31:34;99249.91;;;12.33;nan
59375;BME280;45172;55.006;73.460;2023-06-22T06:34:00;99270.75;;;12.75;nan
59375;BME280;45172;55.006;73.460;2023-06-22T06:36:26;99280.44;;;12.79;nan
59375;BME280;45172;55.006;73.460;2023-06-22T06:38:53;99217.09;;;12.39;nan
59375;BME280;45172;55.006;73.460;2023-06-22T06:41:19;99284.22;;;12.55;nan
59375;BME280;45172;55.006;73.460;2023-06-22T06:43:45;99291.38;;;12.46;nan
59375;BME280;45172;55.006;73.460;2023-06-22T06:46:11;99266.97;;;12.04;nan
59375;BME280;45172;55.006;73.460;2023-06-22T06:48:37;99303.22;;;12.03;nan
59375;BME280;45172;55.006;73.460;2023-06-22T06:51:05;99290.03;;;11.91;nan
59375;BME280;45172;55.006;73.460;2023-06-22T06:53:36;99276.84;;;11.80;nan
59375;BME280;45172;55.006;73.460;2023-06-22T06:56:02;99264.50;;;11.73;nan
59375;BME280;45172;55.006;73.460;2023-06-22T06:58:29;99305.09;;;11.87;nan
59375;BME280;45172;55.006;73.460;2023-06-22T07:00:57;99295.31;;;11.92;nan
59375;BME280;45172;55.006;73.460;2023-06-22T07:03:23;99303.22;;;12.07;nan
59375;BME280;45172;55.006;73.460;2023-06-22T07:06:02;99275.06;;;11.79;nan
59375;BME280;45172;55.006;73.460;2023-06-22T07:08:28;99309.41;;;12.02;nan
59375;BME280;45172;55.006;73.460;2023-06-22T07:10:54;99283.06;;;11.71;nan
59375;BME280;45172;55.006;73.460;2023-06-22T07:13:21;99308.50;;;12.10;nan
59375;BME280;45172;55.006;73.460;2023-06-22T07:15:47;99306.44;;;12.46;nan
59375;BME280;45172;55.006;73.460;2023-06-22T07:18:13;99309.72;;;12.73;nan
59375;BME280;45172;55.006;73.460;2023-06-22T07:20:40;99309.72;;;12.74;nan
59375;BME280;45172;55.006;73.460;2023-06-22T07:23:06;99312.31;;;12.81;nan
59375;BME280;45172;55.006;73.460;2023-06-22T07:25:33;99315.66;;;12.98;nan
59375;BME280;45172;55.006;73.460;2023-06-22T07:30:28;99277.94;;;12.64;nan
59375;BME280;45172;55.006;73.460;2023-06-22T07:32:55;99273.41;;;12.72;nan
59375;BME280;45172;55.006;73.460;2023-06-22T07:35:21;99311.19;;;13.00;nan
59375;BME280;45172;55.006;73.460;2023-06-22T07:37:47;99297.66;;;13.22;nan
59375;BME280;45172;55.006;73.460;2023-06-22T07:40:14;99310.69;;;13.47;nan
59375;BME280;45172;55.006;73.460;2023-06-22T07:42:44;99278.78;;;13.42;nan
59375;BME280;45172;55.006;73.460;2023-06-22T07:45:10;99297.16;;;13.64;nan
59375;BME280;45172;55.006;73.460;2023-06-22T07:47:37;99308.47;;;13.79;nan
59375;BME280;45172;55.006;73.460;2023-06-22T07:50:04;99324.22;;;13.94;nan
59375;BME280;45172;55.006;73.460;2023-06-22T07:52:31;99334.88;;;13.94;nan
59375;BME280;45172;55.006;73.460;2023-06-22T07:54:57;99325.44;;;13.73;nan
59375;BME280;45172;55.006;73.460;2023-06-22T07:57:24;99291.88;;;13.61;nan
59375;BME280;45172;55.006;73.460;2023-06-22T08:00:00;99341.97;;;13.94;nan
59375;BME280;45172;55.006;73.460;2023-06-22T08:02:26;99346.44;;;13.92;nan
59375;BME280;45172;55.006;73.460;2023-06-22T08:04:56;99339.31;;;13.95;nan
59375;BME280;45172;55.006;73.460;2023-06-22T08:07:22;99347.31;;;13.94;nan
59375;BME280;45172;55.006;73.460;2023-06-22T08:09:48;99314.59;;;13.86;nan
59375;BME280;45172;55.006;73.460;2023-06-22T08:12:15;99301.25;;;13.87;nan
59375;BME280;45172;55.006;73.460;2023-06-22T08:14:42;99226.34;;;13.54;nan
59375;BME280;45172;55.006;73.460;2023-06-22T08:17:10;99349.31;;;14.39;nan
59375;BME280;45172;55.006;73.460;2023-06-22T08:19:39;99346.47;;;14.48;nan
59375;BME280;45172;55.006;73.460;2023-06-22T08:22:06;99348.19;;;14.52;nan
59375;BME280;45172;55.006;73.460;2023-06-22T08:24:32;99356.41;;;14.38;nan
59375;BME280;45172;55.006;73.460;2023-06-22T08:26:58;99360.19;;;14.25;nan
59375;BME280;45172;55.006;73.460;2023-06-22T08:29:25;99300.72;;;13.63;nan
59375;BME280;45172;55.006;73.460;2023-06-22T08:31:51;99367.75;;;13.93;nan
59375;BME280;45172;55.006;73.460;2023-06-22T08:34:17;99309.41;;;13.78;nan
59375;BME280;45172;55.006;73.460;2023-06-22T08:36:47;99363.56;;;14.35;nan
59375;BME280;45172;55.006;73.460;2023-06-22T08:39:21;99349.34;;;14.36;nan
59375;BME280;45172;55.006;73.460;2023-06-22T08:41:47;99343.97;;;14.41;nan
59375;BME280;45172;55.006;73.460;2023-06-22T08:44:14;99378.47;;;14.47;nan
59375;BME280;45172;55.006;73.460;2023-06-22T08:46:40;99371.38;;;14.46;nan
59375;BME280;45172;55.006;73.460;2023-06-22T08:49:07;99376.53;;;14.57;nan
59375;BME280;45172;55.006;73.460;2023-06-22T08:51:33;99366.53;;;14.70;nan
59375;BME280;45172;55.006;73.460;2023-06-22T08:54:00;99381.28;;;14.92;nan
59375;BME280;45172;55.006;73.460;2023-06-22T08:56:26;99382.72;;;15.12;nan
59375;BME280;45172;55.006;73.460;2023-06-22T08:58:52;99369.06;;;15.29;nan
59375;BME280;45172;55.006;73.460;2023-06-22T09:01:18;99360.31;;;15.21;nan
59375;BME280;45172;55.006;73.460;2023-06-22T09:03:44;99360.88;;;15.39;nan
59375;BME280;45172;55.006;73.460;2023-06-22T09:06:20;99373.75;;;15.62;nan
59375;BME280;45172;55.006;73.460;2023-06-22T09:08:47;99377.31;;;15.63;nan
59375;BME280;45172;55.006;73.460;2023-06-22T09:11:14;99377.31;;;15.63;nan
59375;BME280;45172;55.006;73.460;2023-06-22T09:13:40;99381.97;;;15.51;nan
59375;BME280;45172;55.006;73.460;2023-06-22T09:16:05;99367.38;;;15.25;nan
59375;BME280;45172;55.006;73.460;2023-06-22T09:18:34;99372.00;;;15.15;nan
59375;BME280;45172;55.006;73.460;2023-06-22T09:21:00;99366.22;;;14.90;nan
59375;BME280;45172;55.006;73.460;2023-06-22T09:23:26;99384.06;;;14.86;nan
59375;BME280;45172;55.006;73.460;2023-06-22T09:26:20;99399.00;;;14.40;nan
59375;BME280;45172;55.006;73.460;2023-06-22T09:28:47;99403.28;;;13.89;nan
59375;BME280;45172;55.006;73.460;2023-06-22T09:31:13;99408.00;;;13.68;nan
59375;BME280;45172;55.006;73.460;2023-06-22T09:33:40;99411.06;;;13.28;nan
59375;BME280;45172;55.006;73.460;2023-06-22T09:36:07;99411.31;;;13.01;nan
59375;BME280;45172;55.006;73.460;2023-06-22T09:38:37;99401.78;;;12.82;nan
59375;BME280;45172;55.006;73.460;2023-06-22T09:41:03;99392.94;;;12.80;nan
59375;BME280;45172;55.006;73.460;2023-06-22T09:43:32;99378.88;;;12.65;nan
59375;BME280;45172;55.006;73.460;2023-06-22T09:45:58;99395.50;;;12.86;nan
59375;BME280;45172;55.006;73.460;2023-06-22T09:48:24;99412.00;;;13.24;nan
59375;BME280;45172;55.006;73.460;2023-06-22T09:50:50;99393.44;;;13.16;nan
59375;BME280;45172;55.006;73.460;2023-06-22T09:53:16;99405.63;;;13.40;nan
59375;BME280;45172;55.006;73.460;2023-06-22T09:55:42;99415.88;;;13.75;nan
59375;BME280;45172;55.006;73.460;2023-06-22T09:58:08;99376.63;;;13.91;nan
59375;BME280;45172;55.006;73.460;2023-06-22T10:00:35;99408.28;;;14.14;nan
59375;BME280;45172;55.006;73.460;2023-06-22T10:03:01;99409.97;;;14.18;nan
59375;BME280;45172;55.006;73.460;2023-06-22T10:05:31;99387.91;;;14.08;nan
59375;BME280;45172;55.006;73.460;2023-06-22T10:07:57;99404.50;;;14.28;nan
59375;BME280;45172;55.006;73.460;2023-06-22T10:10:23;99409.69;;;14.38;nan
59375;BME280;45172;55.006;73.460;2023-06-22T10:12:57;99419.25;;;14.54;nan
59375;BME280;45172;55.006;73.460;2023-06-22T10:15:28;99399.06;;;14.37;nan
59375;BME280;45172;55.006;73.460;2023-06-22T10:17:54;99418.47;;;14.45;nan
59375;BME280;45172;55.006;73.460;2023-06-22T10:20:20;99420.41;;;14.35;nan
59375;BME280;45172;55.006;73.460;2023-06-22T10:22:47;99422.41;;;14.19;nan
59375;BME280;45172;55.006;73.460;2023-06-22T10:25:13;99422.59;;;14.07;nan
59375;BME280;45172;55.006;73.460;2023-06-22T10:27:40;99445.72;;;14.02;nan
59375;BME280;45172;55.006;73.460;2023-06-22T10:30:07;99444.09;;;13.90;nan
59375;BME280;45172;55.006;73.460;2023-06-22T10:32:34;99438.00;;;13.78;nan
59375;BME280;45172;55.006;73.460;2023-06-22T10:35:00;99446.81;;;13.85;nan
59375;BME280;45172;55.006;73.460;2023-06-22T10:37:26;99426.50;;;13.78;nan
59375;BME280;45172;55.006;73.460;2023-06-22T10:39:52;99435.22;;;13.89;nan
59375;BME280;45172;55.006;73.460;2023-06-22T10:42:18;99443.78;;;14.13;nan
59375;BME280;45172;55.006;73.460;2023-06-22T10:44:44;99450.56;;;14.36;nan
59375;BME280;45172;55.006;73.460;2023-06-22T10:47:10;99409.16;;;14.15;nan
59375;BME280;45172;55.006;73.460;2023-06-22T10:49:40;99441.84;;;14.26;nan
59375;BME280;45172;55.006;73.460;2023-06-22T10:52:07;99428.69;;;14.15;nan
59375;BME280;45172;55.006;73.460;2023-06-22T10:54:35;99446.91;;;14.45;nan
59375;BME280;45172;55.006;73.460;2023-06-22T10:57:02;99449.13;;;14.74;nan
59375;BME280;45172;55.006;73.460;2023-06-22T10:59:28;99403.53;;;14.91;nan
59375;BME280;45172;55.006;73.460;2023-06-22T11:01:56;99409.03;;;15.31;nan
59375;BME280;45172;55.006;73.460;2023-06-22T11:04:22;99444.38;;;15.89;nan
59375;BME280;45172;55.006;73.460;2023-06-22T11:06:49;99435.72;;;16.21;nan
59375;BME280;45172;55.006;73.460;2023-06-22T11:09:17;99434.28;;;16.45;nan
59375;BME280;45172;55.006;73.460;2023-06-22T11:11:47;99450.88;;;16.60;nan
59375;BME280;45172;55.006;73.460;2023-06-22T11:14:14;99438.41;;;16.21;nan
59375;BME280;45172;55.006;73.460;2023-06-22T11:16:41;99449.63;;;15.96;nan
59375;BME280;45172;55.006;73.460;2023-06-22T11:19:07;99436.50;;;15.83;nan
59375;BME280;45172;55.006;73.460;2023-06-22T11:21:34;99446.31;;;15.83;nan
59375;BME280;45172;55.006;73.460;2023-06-22T11:24:01;99460.75;;;15.72;nan
59375;BME280;45172;55.006;73.460;2023-06-22T11:26:33;99444.44;;;15.42;nan
59375;BME280;45172;55.006;73.460;2023-06-22T11:28:59;99468.34;;;15.47;nan
59375;BME280;45172;55.006;73.460;2023-06-22T11:31:25;99456.34;;;15.23;nan
59375;BME280;45172;55.006;73.460;2023-06-22T11:33:51;99479.69;;;15.10;nan
59375;BME280;45172;55.006;73.460;2023-06-22T11:36:18;99493.53;;;14.77;nan
59375;BME280;45172;55.006;73.460;2023-06-22T11:38:44;99462.25;;;14.27;nan
59375;BME280;45172;55.006;73.460;2023-06-22T11:41:10;99489.75;;;14.28;nan
59375;BME280;45172;55.006;73.460;2023-06-22T11:43:36;99491.75;;;14.11;nan
59375;BME280;45172;55.006;73.460;2023-06-22T11:46:03;99455.47;;;14.01;nan
59375;BME280;45172;55.006;73.460;2023-06-22T11:48:31;99494.28;;;14.21;nan
59375;BME280;45172;55.006;73.460;2023-06-22T11:50:57;99493.25;;;14.33;nan
59375;BME280;45172;55.006;73.460;2023-06-22T11:53:26;99472.72;;;14.39;nan
59375;BME280;45172;55.006;73.460;2023-06-22T11:55:53;99502.44;;;14.76;nan
59375;BME280;45172;55.006;73.460;2023-06-22T11:58:20;99487.78;;;15.03;nan
59375;BME280;45172;55.006;73.460;2023-06-22T12:00:46;99494.53;;;15.25;nan
59375;BME280;45172;55.006;73.460;2023-06-22T12:03:12;99491.00;;;15.24;nan
59375;BME280;45172;55.006;73.460;2023-06-22T12:05:41;99488.56;;;15.10;nan
59375;BME280;45172;55.006;73.460;2023-06-22T12:08:07;99500.81;;;15.22;nan
59375;BME280;45172;55.006;73.460;2023-06-22T12:10:33;99494.53;;;15.25;nan
59375;BME280;45172;55.006;73.460;2023-06-22T12:13:00;99505.28;;;15.70;nan
59375;BME280;45172;55.006;73.460;2023-06-22T12:15:27;99504.78;;;15.97;nan
59375;BME280;45172;55.006;73.460;2023-06-22T12:17:53;99493.72;;;15.70;nan
59375;BME280;45172;55.006;73.460;2023-06-22T12:20:20;99493.81;;;15.65;nan
59375;BME280;45172;55.006;73.460;2023-06-22T12:22:45;99497.47;;;15.59;nan
59375;BME280;45172;55.006;73.460;2023-06-22T12:25:13;99505.88;;;15.38;nan
59375;BME280;45172;55.006;73.460;2023-06-22T12:27:39;99513.28;;;15.20;nan
59375;BME280;45172;55.006;73.460;2023-06-22T12:30:05;99523.38;;;15.01;nan
59375;BME280;45172;55.006;73.460;2023-06-22T12:32:32;99538.91;;;14.75;nan
59375;BME280;45172;55.006;73.460;2023-06-22T12:34:58;99508.78;;;13.98;nan
59375;BME280;45172;55.006;73.460;2023-06-22T12:37:25;99572.94;;;13.73;nan
59375;BME280;45172;55.006;73.460;2023-06-22T12:39:51;99575.00;;;13.35;nan
59375;BME280;45172;55.006;73.460;2023-06-22T12:42:17;99565.50;;;13.06;nan
59375;BME280;45172;55.006;73.460;2023-06-22T12:44:43;99551.56;;;12.70;nan
59375;BME280;45172;55.006;73.460;2023-06-22T12:47:11;99538.28;;;12.71;nan
59375;BME280;45172;55.006;73.460;2023-06-22T12:49:38;99553.06;;;13.10;nan
59375;BME280;45172;55.006;73.460;2023-06-22T12:52:08;99550.19;;;13.36;nan
59375;BME280;45172;55.006;73.460;2023-06-22T12:54:35;99554.50;;;13.53;nan
59375;BME280;45172;55.006;73.460;2023-06-22T12:57:02;99548.09;;;13.76;nan
59375;BME280;45172;55.006;73.460;2023-06-22T12:59:28;99508.53;;;14.18;nan
59375;BME280;45172;55.006;73.460;2023-06-22T13:01:54;99540.19;;;15.06;nan
59375;BME280;45172;55.006;73.460;2023-06-22T13:04:21;99532.41;;;15.47;nan
59375;BME280;45172;55.006;73.460;2023-06-22T13:06:47;99537.75;;;15.96;nan
59375;BME280;45172;55.006;73.460;2023-06-22T13:09:14;99519.41;;;16.23;nan
59375;BME280;45172;55.006;73.460;2023-06-22T13:11:42;99526.78;;;16.52;nan
59375;BME280;45172;55.006;73.460;2023-06-22T13:14:09;99491.00;;;16.17;nan
59375;BME280;45172;55.006;73.460;2023-06-22T13:16:35;99532.19;;;16.07;nan
59375;BME280;45172;55.006;73.460;2023-06-22T13:19:01;99531.09;;;15.71;nan
59375;BME280;45172;55.006;73.460;2023-06-22T13:21:27;99538.56;;;15.52;nan
59375;BME280;45172;55.006;73.460;2023-06-22T13:23:53;99570.69;;;15.46;nan
59375;BME280;45172;55.006;73.460;2023-06-22T13:26:20;99534.78;;;15.09;nan
59375;BME280;45172;55.006;73.460;2023-06-22T13:28:46;99571.19;;;15.15;nan
59375;BME280;45172;55.006;73.460;2023-06-22T13:31:13;99584.69;;;15.02;nan
59375;BME280;45172;55.006;73.460;2023-06-22T13:33:40;99558.28;;;14.85;nan
59375;BME280;45172;55.006;73.460;2023-06-22T13:36:11;99567.34;;;14.70;nan
59375;BME280;45172;55.006;73.460;2023-06-22T13:38:37;99565.81;;;14.50;nan